Mount Tabor, North Carolina
Current Conditions -  °F | °C
As of 12:54 AM on Monday 26 Jan 2015 (Local Time) from KINT Reporting Station
Overcast Overcast  
Wind Chill: 44°   Ceiling: 11000
Heat Index: 44°   Visibility: 10mi
Dew Point: 33°   Wind: 3mph
Humidity: 65%   Direction: 140°SE
Pressure: 29.71"   Gusts: NA
Location:  36.1422°N, 80.3221°W
Report Text: KINT 260554Z AUTO 14003KT 10SM OVC110 07/01 A2971 RMK AO2 SLP060 T00670006 10089 20067 58025
Loading
Personal Weather Stations






























Interactive Weather Map New forecast layout! Learn more

10-Day Weather Forecast

Advertisements
Track Severe Weather on mobile